createdAt,value
2017-02-16T00:00:52.452Z,25.39
2017-02-16T00:02:05.606Z,25.38
2017-02-16T00:03:17.091Z,25.42
2017-02-16T00:04:30.262Z,25.45
2017-02-16T00:05:43.676Z,25.44
2017-02-16T00:06:56.829Z,25.34
2017-02-16T00:08:10.024Z,25.42
2017-02-16T00:09:23.185Z,25.46
2017-02-16T00:10:50.345Z,25.45
2017-02-16T00:12:03.499Z,25.39
2017-02-16T00:13:16.663Z,25.45
2017-02-16T00:14:29.834Z,25.51
2017-02-16T00:15:42.991Z,25.53
2017-02-16T00:16:56.448Z,25.53
2017-02-16T00:18:09.045Z,25.56
2017-02-16T00:19:35.677Z,25.6
2017-02-16T00:21:02.829Z,25.69
2017-02-16T00:22:15.972Z,25.63
2017-02-16T00:24:55.734Z,25.66
2017-02-16T00:26:09.150Z,25.59
2017-02-16T00:27:22.324Z,25.61
2017-02-16T00:28:34.929Z,25.75
2017-02-16T00:29:48.081Z,25.78
2017-02-16T00:31:01.244Z,25.78
2017-02-16T00:32:14.412Z,25.78
2017-02-16T00:33:27.566Z,25.76
2017-02-16T00:34:40.734Z,25.79
2017-02-16T00:35:53.886Z,25.78
2017-02-16T00:37:07.108Z,25.81
2017-02-16T00:38:19.710Z,25.78
2017-02-16T00:39:32.868Z,25.85
2017-02-16T00:40:46.023Z,25.82
2017-02-16T00:41:59.186Z,25.93
2017-02-16T00:43:12.353Z,25.79
2017-02-16T00:44:24.959Z,25.81
2017-02-16T00:45:38.113Z,25.76
2017-02-16T00:46:51.265Z,25.74
2017-02-16T00:48:04.629Z,25.78
2017-02-16T00:49:17.216Z,25.79
2017-02-16T00:50:28.692Z,25.76
2017-02-16T00:51:41.844Z,25.72
2017-02-16T00:52:54.994Z,25.79
2017-02-16T00:54:08.363Z,25.72
2017-02-16T00:55:21.534Z,25.75
2017-02-16T00:56:34.704Z,25.78
2017-02-16T00:57:47.883Z,25.76
2017-02-16T00:59:01.047Z,25.72
2017-02-16T01:00:14.199Z,25.81
2017-02-16T01:01:27.379Z,25.76
2017-02-16T01:02:40.559Z,25.76
2017-02-16T01:03:53.741Z,25.79
2017-02-16T01:05:07.108Z,25.75
2017-02-16T01:06:20.289Z,25.9
2017-02-16T01:07:47.462Z,25.76
2017-02-16T01:09:00.263Z,25.82
2017-02-16T01:10:13.453Z,25.86
2017-02-16T01:11:26.627Z,25.78
2017-02-16T01:12:39.803Z,25.82
2017-02-16T01:13:52.962Z,25.82
2017-02-16T01:15:06.116Z,25.79
2017-02-16T01:16:18.714Z,25.78
2017-02-16T01:17:31.917Z,25.82
2017-02-16T01:18:45.097Z,25.81
2017-02-16T01:19:58.288Z,25.69
2017-02-16T01:21:10.894Z,25.69
2017-02-16T01:22:24.052Z,25.57
2017-02-16T01:23:37.206Z,25.57
2017-02-16T01:26:17.153Z,25.51
2017-02-16T01:27:29.749Z,25.49
2017-02-16T01:28:42.350Z,25.45
2017-02-16T01:29:55.511Z,25.53
2017-02-16T01:31:08.674Z,25.49
2017-02-16T01:32:21.835Z,25.56
2017-02-16T01:33:34.987Z,25.56
2017-02-16T01:35:02.143Z,25.57
2017-02-16T01:36:14.956Z,25.67
2017-02-16T01:37:27.557Z,25.63
2017-02-16T01:38:40.716Z,25.66
2017-02-16T01:39:53.884Z,25.66
2017-02-16T01:41:07.051Z,25.67
2017-02-16T01:42:20.430Z,25.61
2017-02-16T01:43:33.595Z,25.66
2017-02-16T01:44:46.740Z,25.69
2017-02-16T01:45:59.904Z,25.66
2017-02-16T01:47:13.060Z,25.69
2017-02-16T01:48:25.670Z,25.64
2017-02-16T01:49:38.864Z,25.63
2017-02-16T01:50:51.453Z,25.76
2017-02-16T01:52:04.610Z,25.74
2017-02-16T01:53:17.966Z,25.72
2017-02-16T01:54:31.124Z,25.66
2017-02-16T01:55:44.285Z,25.71
2017-02-16T01:56:57.446Z,25.6
2017-02-16T01:58:10.062Z,25.66
2017-02-16T01:59:22.660Z,25.66
2017-02-16T02:00:35.813Z,25.66
2017-02-16T02:01:48.967Z,25.66
2017-02-16T02:03:02.112Z,25.71
2017-02-16T02:04:14.912Z,25.74
2017-02-16T02:05:28.084Z,25.64
2017-02-16T02:06:41.253Z,25.69
2017-02-16T02:07:54.410Z,25.71
2017-02-16T02:09:07.576Z,25.69
2017-02-16T02:10:19.621Z,25.66
2017-02-16T02:11:32.211Z,25.59
2017-02-16T02:14:12.174Z,25.66
2017-02-16T02:15:25.332Z,25.72
2017-02-16T02:16:38.504Z,25.69
2017-02-16T02:18:05.678Z,25.64
2017-02-16T02:19:18.839Z,25.63
2017-02-16T02:20:31.991Z,25.59
2017-02-16T02:21:45.153Z,25.63
2017-02-16T02:22:58.324Z,25.61
2017-02-16T02:24:10.936Z,25.59
2017-02-16T02:25:23.721Z,25.63
2017-02-16T02:26:36.884Z,25.6
2017-02-16T02:27:50.035Z,25.64
2017-02-16T02:29:03.206Z,25.61
2017-02-16T02:30:16.589Z,25.69
2017-02-16T02:31:29.205Z,25.64
2017-02-16T02:32:42.366Z,25.67
2017-02-16T02:33:55.528Z,25.67
2017-02-16T02:35:08.681Z,25.6
2017-02-16T02:36:22.065Z,25.57
2017-02-16T02:37:35.214Z,25.66
2017-02-16T02:38:48.383Z,25.63
2017-02-16T02:40:01.556Z,25.61
2017-02-16T02:41:29.020Z,25.64
2017-02-16T02:42:42.185Z,25.61
2017-02-16T02:43:55.338Z,25.61
2017-02-16T02:45:08.502Z,25.6
2017-02-16T02:46:21.951Z,25.69
2017-02-16T02:47:35.126Z,25.67
2017-02-16T02:48:47.728Z,25.69
2017-02-16T02:50:00.872Z,25.66
2017-02-16T02:51:14.034Z,25.66
2017-02-16T02:52:27.189Z,25.72
2017-02-16T02:53:40.355Z,25.67
2017-02-16T02:54:53.522Z,25.67
2017-02-16T02:56:06.675Z,25.66
2017-02-16T02:57:19.491Z,25.53
2017-02-16T02:58:32.652Z,25.66
2017-02-16T02:59:45.813Z,25.6
2017-02-16T03:00:58.486Z,25.57
2017-02-16T03:02:11.228Z,25.51
2017-02-16T03:03:24.549Z,25.56
2017-02-16T03:04:37.836Z,25.49
2017-02-16T03:05:51.157Z,25.61
2017-02-16T03:07:04.478Z,25.6
2017-02-16T03:08:17.981Z,25.56
2017-02-16T03:09:31.275Z,25.56
2017-02-16T03:10:44.562Z,25.45
2017-02-16T03:11:57.856Z,25.48
2017-02-16T03:13:10.608Z,25.38
2017-02-16T03:14:38.182Z,25.41
2017-02-16T03:15:51.472Z,25.42
2017-02-16T03:17:04.783Z,25.45
2017-02-16T03:18:18.083Z,25.44
2017-02-16T03:19:31.371Z,25.41
2017-02-16T03:20:44.668Z,25.41
2017-02-16T03:22:11.946Z,25.36
2017-02-16T03:23:25.257Z,25.45
2017-02-16T03:24:38.547Z,25.41
2017-02-16T03:25:51.841Z,25.36
2017-02-16T03:27:05.128Z,25.41
2017-02-16T03:28:18.442Z,25.42
2017-02-16T03:29:32.036Z,25.42
2017-02-16T03:30:45.319Z,25.34
2017-02-16T03:31:58.613Z,25.42
2017-02-16T03:33:11.895Z,25.41
2017-02-16T03:34:24.625Z,25.38
2017-02-16T03:35:37.945Z,25.39
2017-02-16T03:36:51.266Z,25.35
2017-02-16T03:38:04.569Z,25.26
2017-02-16T03:39:17.292Z,25.29
2017-02-16T03:40:30.884Z,25.24
2017-02-16T03:41:44.181Z,25.26
2017-02-16T03:42:57.478Z,25.24
2017-02-16T03:44:10.770Z,25.16
2017-02-16T03:45:23.491Z,25.16
2017-02-16T03:46:36.771Z,25.12
2017-02-16T03:47:50.080Z,25.12
2017-02-16T03:49:03.363Z,25.11
2017-02-16T03:50:16.654Z,25.11
2017-02-16T03:51:29.584Z,25.2
2017-02-16T03:52:42.899Z,25.26
2017-02-16T03:53:56.195Z,25.12
2017-02-16T03:56:36.976Z,25.23
2017-02-16T03:57:50.318Z,25.12
2017-02-16T03:59:03.607Z,25.11
2017-02-16T04:00:16.917Z,25.09
2017-02-16T04:01:30.503Z,25.14
2017-02-16T04:02:43.811Z,25.11
2017-02-16T04:03:57.094Z,25.14
2017-02-16T04:05:24.356Z,25.11
2017-02-16T04:06:37.664Z,25.11
2017-02-16T04:07:50.947Z,25.09
2017-02-16T04:09:03.668Z,25.16
2017-02-16T04:10:16.963Z,25.02
2017-02-16T04:11:30.250Z,25.05
2017-02-16T04:12:43.751Z,25.07
2017-02-16T04:13:57.034Z,25.09
2017-02-16T04:15:09.766Z,25.07
2017-02-16T04:16:23.077Z,24.98
2017-02-16T04:17:36.571Z,25.04
2017-02-16T04:18:49.880Z,24.99
2017-02-16T04:20:03.188Z,24.99
2017-02-16T04:21:16.489Z,24.94
2017-02-16T04:22:29.220Z,24.92
2017-02-16T04:23:42.762Z,24.97
2017-02-16T04:25:10.035Z,24.9
2017-02-16T04:26:22.763Z,24.9
2017-02-16T04:27:36.259Z,24.9
2017-02-16T04:28:49.579Z,24.86
2017-02-16T04:30:02.878Z,24.87
2017-02-16T04:31:16.090Z,24.83
2017-02-16T04:32:43.253Z,24.82
2017-02-16T04:33:56.416Z,24.86
2017-02-16T04:35:09.562Z,24.89
2017-02-16T04:36:22.714Z,24.84
2017-02-16T04:37:35.873Z,24.87
2017-02-16T04:38:49.229Z,24.92
2017-02-16T04:40:16.392Z,24.87
2017-02-16T04:41:29.588Z,24.79
2017-02-16T04:42:42.966Z,24.75
2017-02-16T04:43:56.128Z,24.75
2017-02-16T04:45:09.295Z,24.71
2017-02-16T04:46:21.895Z,24.67
2017-02-16T04:47:34.494Z,24.7
2017-02-16T04:48:47.656Z,24.71
2017-02-16T04:50:00.800Z,24.71
2017-02-16T04:51:13.401Z,24.7
2017-02-16T04:52:26.581Z,24.66
2017-02-16T04:53:40.051Z,24.77
2017-02-16T04:54:53.197Z,24.74
2017-02-16T04:57:32.955Z,24.8
2017-02-16T04:58:47.121Z,24.8
2017-02-16T05:00:00.298Z,24.83
2017-02-16T05:01:12.326Z,24.75
2017-02-16T05:02:25.492Z,24.74
2017-02-16T05:03:38.655Z,24.77
2017-02-16T05:04:52.016Z,24.75
2017-02-16T05:06:04.622Z,24.82
2017-02-16T05:07:17.779Z,24.74
2017-02-16T05:08:44.931Z,24.75
2017-02-16T05:09:58.096Z,24.7
2017-02-16T05:11:10.710Z,24.7
2017-02-16T05:12:22.773Z,24.75
2017-02-16T05:13:35.951Z,24.74
2017-02-16T05:14:49.397Z,24.75
2017-02-16T05:16:02.547Z,24.66
2017-02-16T05:17:15.713Z,24.67
2017-02-16T05:18:28.879Z,24.7
2017-02-16T05:19:42.057Z,24.64
2017-02-16T05:20:55.206Z,24.68
2017-02-16T05:22:07.800Z,24.61
2017-02-16T05:23:20.412Z,24.63
2017-02-16T05:24:33.574Z,24.66
2017-02-16T05:25:46.194Z,24.52
2017-02-16T05:26:59.356Z,24.61
2017-02-16T05:28:12.536Z,24.61
2017-02-16T05:29:39.727Z,24.53
2017-02-16T05:30:53.237Z,24.64
2017-02-16T05:32:06.407Z,24.55
2017-02-16T05:33:19.584Z,24.56
2017-02-16T05:34:32.751Z,24.49
2017-02-16T05:35:45.912Z,24.52
2017-02-16T05:36:59.083Z,24.51
2017-02-16T05:38:12.248Z,24.52
2017-02-16T05:39:25.420Z,24.53
2017-02-16T05:40:38.598Z,24.59
2017-02-16T05:41:51.504Z,24.51
2017-02-16T05:43:04.681Z,24.48
2017-02-16T05:44:17.849Z,24.41
2017-02-16T05:45:30.992Z,24.31
2017-02-16T05:46:43.600Z,24.34
2017-02-16T05:47:56.946Z,24.44
2017-02-16T05:49:10.115Z,24.39
2017-02-16T05:50:22.703Z,24.41
2017-02-16T05:51:35.866Z,24.39
2017-02-16T05:52:49.233Z,24.45
2017-02-16T05:54:01.846Z,24.44
2017-02-16T05:55:14.443Z,24.42
2017-02-16T05:56:41.056Z,24.51
2017-02-16T05:57:54.238Z,24.41
2017-02-16T05:59:07.401Z,24.45
2017-02-16T06:00:20.560Z,24.46
2017-02-16T06:01:33.793Z,24.46
2017-02-16T06:02:46.536Z,24.45
2017-02-16T06:04:00.144Z,24.36
2017-02-16T06:05:13.435Z,24.31
2017-02-16T06:06:26.152Z,24.37
2017-02-16T06:07:39.439Z,24.37
2017-02-16T06:08:52.736Z,24.39
2017-02-16T06:10:20.004Z,24.33
2017-02-16T06:11:33.292Z,24.31
2017-02-16T06:12:46.007Z,24.29
2017-02-16T06:13:59.602Z,24.27
2017-02-16T06:15:12.339Z,24.29
2017-02-16T06:16:25.654Z,24.31
2017-02-16T06:17:37.828Z,24.27
2017-02-16T06:18:51.110Z,24.21
2017-02-16T06:20:04.598Z,24.21
2017-02-16T06:21:17.336Z,24.26
2017-02-16T06:22:30.641Z,24.14
2017-02-16T06:23:43.933Z,24.09
2017-02-16T06:24:57.527Z,23.97
2017-02-16T06:26:10.842Z,23.93
2017-02-16T06:27:24.132Z,23.97
2017-02-16T06:28:37.453Z,24.04
2017-02-16T06:29:50.736Z,23.97
2017-02-16T06:31:04.032Z,24.04
2017-02-16T06:32:17.317Z,24.04
2017-02-16T06:33:30.606Z,24.04
2017-02-16T06:34:43.320Z,24.06
2017-02-16T06:35:56.913Z,24.08
2017-02-16T06:37:10.207Z,24
2017-02-16T06:38:23.496Z,24.05
2017-02-16T06:39:36.804Z,24.12
2017-02-16T06:41:04.082Z,24.06
2017-02-16T06:42:17.380Z,24.09
2017-02-16T06:43:30.128Z,24.02
2017-02-16T06:44:43.426Z,23.99
2017-02-16T06:45:56.675Z,24.02
2017-02-16T06:48:37.296Z,24.06
2017-02-16T06:50:04.455Z,24.06
2017-02-16T06:51:17.623Z,24.14
2017-02-16T06:52:30.218Z,24.18
2017-02-16T06:53:43.379Z,24.09
2017-02-16T06:54:56.545Z,24.14
2017-02-16T06:56:09.712Z,24.14
2017-02-16T06:57:22.875Z,24.06
2017-02-16T06:58:35.480Z,24.12
2017-02-16T06:59:48.081Z,24.15
2017-02-16T07:01:01.254Z,24.09
2017-02-16T07:02:28.626Z,24.12
2017-02-16T07:03:41.248Z,24.05
2017-02-16T07:04:54.412Z,24.11
2017-02-16T07:06:07.583Z,24.14
2017-02-16T07:07:20.771Z,24.15
2017-02-16T07:08:34.236Z,24.15
2017-02-16T07:09:47.406Z,24.11
2017-02-16T07:11:00.582Z,24.06
2017-02-16T07:12:13.739Z,24.08
2017-02-16T07:13:26.540Z,24.12
2017-02-16T07:14:39.696Z,24.08
2017-02-16T07:15:52.298Z,24.11
2017-02-16T07:17:05.470Z,24.09
2017-02-16T07:18:32.260Z,24.08
2017-02-16T07:19:45.420Z,24.04
2017-02-16T07:20:58.591Z,24.06
2017-02-16T07:22:11.749Z,24.11
2017-02-16T07:23:24.900Z,24.09
2017-02-16T07:24:37.712Z,24.12
2017-02-16T07:25:50.874Z,24.15
2017-02-16T07:27:04.035Z,24.12
2017-02-16T07:28:17.213Z,24.09
2017-02-16T07:29:30.365Z,24.11
2017-02-16T07:30:43.817Z,24.05
2017-02-16T07:31:56.962Z,24.14
2017-02-16T07:33:10.110Z,24.04
2017-02-16T07:34:23.266Z,23.99
2017-02-16T07:35:36.419Z,23.96
2017-02-16T07:36:49.565Z,23.93
2017-02-16T07:38:02.731Z,23.92
2017-02-16T07:39:15.319Z,24
2017-02-16T07:40:28.476Z,24.12
2017-02-16T07:41:41.364Z,24.06
2017-02-16T07:42:53.971Z,24.06
2017-02-16T07:44:07.121Z,23.99
2017-02-16T07:45:19.168Z,24.04
2017-02-16T07:46:32.637Z,23.84
2017-02-16T07:47:45.811Z,23.82
2017-02-16T07:48:58.984Z,23.69
2017-02-16T07:50:11.611Z,23.75
2017-02-16T07:51:24.764Z,23.72
2017-02-16T07:52:37.650Z,23.77
2017-02-16T07:53:50.838Z,23.74
2017-02-16T07:55:03.998Z,23.68
2017-02-16T07:56:17.161Z,23.75
2017-02-16T07:57:44.315Z,23.75
2017-02-16T07:58:57.483Z,23.72
2017-02-16T08:00:09.522Z,23.78
2017-02-16T08:01:22.121Z,23.74
2017-02-16T08:02:34.707Z,23.77
2017-02-16T08:03:47.861Z,23.72
2017-02-16T08:05:01.052Z,23.72
2017-02-16T08:06:13.655Z,23.78
2017-02-16T08:07:26.818Z,23.75
2017-02-16T08:08:40.295Z,23.72
2017-02-16T08:09:53.446Z,23.72
2017-02-16T08:11:20.041Z,23.59
2017-02-16T08:12:33.501Z,23.63
2017-02-16T08:13:46.665Z,23.53
2017-02-16T08:14:59.821Z,23.53
2017-02-16T08:16:12.489Z,23.6
2017-02-16T08:17:25.210Z,23.56
2017-02-16T08:18:38.713Z,23.53
2017-02-16T08:19:51.999Z,23.52
2017-02-16T08:21:05.297Z,23.56
2017-02-16T08:22:18.028Z,23.59
2017-02-16T08:23:31.329Z,23.5
2017-02-16T08:24:58.808Z,23.63
2017-02-16T08:26:11.549Z,23.6
2017-02-16T08:27:24.291Z,23.53
2017-02-16T08:28:37.884Z,23.59
2017-02-16T08:29:51.180Z,23.62
2017-02-16T08:31:03.903Z,23.56
2017-02-16T08:32:17.206Z,23.47
2017-02-16T08:33:30.521Z,23.64
2017-02-16T08:34:43.803Z,23.67
2017-02-16T08:35:57.121Z,23.68
2017-02-16T08:37:10.428Z,23.72
2017-02-16T08:38:23.167Z,23.69
2017-02-16T08:39:36.493Z,23.68
2017-02-16T08:40:50.106Z,23.64
2017-02-16T08:42:02.836Z,23.64
2017-02-16T08:43:15.567Z,23.6
2017-02-16T08:44:28.856Z,23.54
2017-02-16T08:45:42.451Z,23.5
2017-02-16T08:46:55.741Z,23.49
2017-02-16T08:48:09.036Z,23.5
2017-02-16T08:49:22.325Z,23.45
2017-02-16T08:50:35.625Z,23.41
2017-02-16T08:51:48.660Z,23.45
2017-02-16T08:53:15.937Z,23.42
2017-02-16T08:54:29.247Z,23.41
2017-02-16T08:57:09.537Z,23.5
2017-02-16T08:58:22.838Z,23.49
2017-02-16T08:59:36.145Z,23.49
2017-02-16T09:00:49.443Z,23.5
2017-02-16T09:02:02.729Z,23.63
2017-02-16T09:03:15.444Z,23.59
2017-02-16T09:04:28.759Z,23.64
2017-02-16T09:05:42.069Z,23.63
2017-02-16T09:06:55.579Z,23.56
2017-02-16T09:08:08.876Z,23.57
2017-02-16T09:09:36.153Z,23.69
2017-02-16T09:10:48.867Z,23.67
2017-02-16T09:12:02.167Z,23.68
2017-02-16T09:13:15.472Z,23.68
2017-02-16T09:14:28.797Z,23.69
2017-02-16T09:15:42.091Z,23.64
2017-02-16T09:17:09.571Z,23.59
2017-02-16T09:18:22.873Z,23.67
2017-02-16T09:19:36.200Z,23.57
2017-02-16T09:21:03.796Z,23.62
2017-02-16T09:22:17.097Z,23.64
2017-02-16T09:23:30.379Z,23.62
2017-02-16T09:24:43.667Z,23.72
2017-02-16T09:25:56.958Z,23.69
2017-02-16T09:27:10.477Z,23.69
2017-02-16T09:28:23.205Z,23.69
2017-02-16T09:29:35.952Z,23.74
2017-02-16T09:30:49.274Z,23.71
2017-02-16T09:32:02.760Z,23.72
2017-02-16T09:33:15.498Z,23.72
2017-02-16T09:34:28.831Z,23.74
2017-02-16T09:35:42.113Z,23.72
2017-02-16T09:36:55.398Z,23.84
2017-02-16T09:38:08.128Z,23.87
2017-02-16T09:39:20.280Z,23.92
2017-02-16T09:40:33.570Z,23.96
2017-02-16T09:42:00.830Z,23.93
2017-02-16T09:43:14.149Z,23.93
2017-02-16T09:44:27.460Z,23.93
2017-02-16T09:45:40.683Z,23.97
2017-02-16T09:46:52.723Z,23.96
2017-02-16T09:48:19.890Z,23.97
2017-02-16T09:49:33.073Z,24.04
2017-02-16T09:50:46.256Z,24.14
2017-02-16T09:51:59.420Z,24.18
2017-02-16T09:53:12.204Z,24.14
2017-02-16T09:54:24.802Z,24.16
2017-02-16T09:55:37.953Z,24.24
2017-02-16T09:56:51.104Z,24.23
2017-02-16T09:58:17.450Z,24.19
2017-02-16T09:59:30.626Z,24.18
2017-02-16T10:00:43.817Z,24.31
2017-02-16T10:01:56.971Z,24.18
2017-02-16T10:03:10.121Z,24.24
2017-02-16T10:04:23.005Z,24.23
2017-02-16T10:05:36.164Z,24.23
2017-02-16T10:06:49.323Z,24.19
2017-02-16T10:08:02.592Z,24.18
2017-02-16T10:09:14.825Z,24.29
2017-02-16T10:10:27.991Z,24.21
2017-02-16T10:11:41.171Z,24.3
2017-02-16T10:12:54.331Z,24.29
2017-02-16T10:14:07.499Z,24.26
2017-02-16T10:15:19.764Z,24.33
2017-02-16T10:16:32.932Z,24.33
2017-02-16T10:17:45.535Z,24.34
2017-02-16T10:18:58.718Z,24.37
2017-02-16T10:20:10.772Z,24.45
2017-02-16T10:21:23.920Z,24.46
2017-02-16T10:24:19.416Z,24.59
2017-02-16T10:25:32.590Z,24.67
2017-02-16T10:26:45.766Z,24.48
2017-02-16T10:27:58.937Z,24.67
2017-02-16T10:29:12.118Z,24.7
2017-02-16T10:30:25.281Z,24.74
2017-02-16T10:31:38.086Z,24.8
2017-02-16T10:32:51.273Z,24.82
2017-02-16T10:34:04.424Z,24.79
2017-02-16T10:35:17.035Z,24.77
2017-02-16T10:36:30.497Z,24.92
2017-02-16T10:37:43.656Z,24.9
2017-02-16T10:38:56.286Z,24.94
2017-02-16T10:40:08.902Z,24.89
2017-02-16T10:41:22.056Z,24.86
2017-02-16T10:42:49.231Z,24.94
2017-02-16T10:44:02.406Z,24.92
2017-02-16T10:45:15.013Z,24.92
2017-02-16T10:46:27.598Z,24.99
2017-02-16T10:47:41.065Z,25.07
2017-02-16T10:48:53.671Z,25.07
2017-02-16T10:50:06.852Z,25.14
2017-02-16T10:51:20.024Z,25.12
2017-02-16T10:52:33.182Z,25.12
2017-02-16T10:53:46.364Z,25.14
2017-02-16T10:54:59.548Z,25.09
2017-02-16T10:56:12.153Z,25.11
2017-02-16T10:57:24.854Z,25.09
2017-02-16T10:58:38.067Z,25.12
2017-02-16T11:00:05.259Z,25.24
2017-02-16T11:01:17.395Z,25.23
2017-02-16T11:02:30.183Z,25.26
2017-02-16T11:03:43.454Z,25.27
2017-02-16T11:04:56.795Z,25.29
2017-02-16T11:06:10.182Z,25.38
2017-02-16T11:07:23.474Z,25.27
2017-02-16T11:08:36.638Z,25.27
2017-02-16T11:09:49.994Z,25.29
2017-02-16T11:11:02.591Z,25.31
2017-02-16T11:12:15.765Z,25.36
2017-02-16T11:13:28.914Z,25.36
2017-02-16T11:14:42.076Z,25.44
2017-02-16T11:15:55.237Z,25.44
2017-02-16T11:17:08.402Z,25.46
2017-02-16T11:18:20.438Z,25.53
2017-02-16T11:19:33.615Z,25.48
2017-02-16T11:20:47.095Z,25.64
2017-02-16T11:22:00.278Z,25.64
2017-02-16T11:23:13.445Z,25.69
2017-02-16T11:24:40.235Z,25.69
2017-02-16T11:25:52.875Z,25.69
2017-02-16T11:27:06.033Z,25.74
2017-02-16T11:28:19.209Z,25.79
2017-02-16T11:29:32.370Z,25.81
2017-02-16T11:30:45.769Z,25.81
2017-02-16T11:31:59.045Z,25.9
2017-02-16T11:33:12.289Z,25.91
2017-02-16T11:34:24.945Z,26.03
2017-02-16T11:35:38.167Z,25.89
2017-02-16T11:36:51.740Z,25.86
2017-02-16T11:38:05.019Z,25.98
2017-02-16T11:39:17.795Z,26.09
2017-02-16T11:40:31.185Z,26.09
2017-02-16T11:41:44.486Z,26.12
2017-02-16T11:42:57.103Z,26.08
2017-02-16T11:44:10.265Z,26.19
2017-02-16T11:45:37.418Z,26.17
2017-02-16T11:46:50.883Z,26.09
2017-02-16T11:48:03.483Z,26.04
2017-02-16T11:49:16.080Z,26.11
2017-02-16T11:50:29.226Z,26.11
2017-02-16T11:51:42.384Z,26.17
2017-02-16T11:52:55.536Z,26.2
2017-02-16T11:54:22.702Z,26.2
2017-02-16T11:55:35.297Z,26.35
2017-02-16T11:56:48.665Z,26.36
2017-02-16T11:58:01.271Z,26.41
2017-02-16T11:59:13.890Z,26.39
2017-02-16T12:00:40.521Z,26.39
2017-02-16T12:01:53.109Z,26.39
2017-02-16T12:03:06.302Z,26.39
2017-02-16T12:04:18.897Z,26.51
2017-02-16T12:05:32.054Z,26.5
2017-02-16T12:06:45.219Z,26.65
2017-02-16T12:07:58.116Z,26.64
2017-02-16T12:09:11.266Z,26.71
2017-02-16T12:10:23.333Z,26.51
2017-02-16T12:11:36.503Z,26.65
2017-02-16T12:12:49.677Z,26.68
2017-02-16T12:14:02.281Z,26.73
2017-02-16T12:15:14.903Z,26.73
2017-02-16T12:16:28.051Z,26.81
2017-02-16T12:17:41.202Z,26.88
2017-02-16T12:18:54.351Z,26.87
2017-02-16T12:20:07.517Z,26.88
2017-02-16T12:21:20.721Z,27.01
2017-02-16T12:22:33.897Z,27.02
2017-02-16T12:23:47.086Z,27.12
2017-02-16T12:25:00.246Z,27.11
2017-02-16T12:26:13.428Z,27.08
2017-02-16T12:27:26.072Z,27.2
2017-02-16T12:28:39.258Z,27.27
2017-02-16T12:29:52.675Z,27.28
2017-02-16T12:31:05.308Z,27.39
2017-02-16T12:32:31.928Z,27.46
2017-02-16T12:33:44.558Z,27.53
2017-02-16T12:34:57.757Z,27.63
2017-02-16T12:36:10.996Z,27.72
2017-02-16T12:37:24.248Z,27.87
2017-02-16T12:38:37.587Z,28.06
2017-02-16T12:39:50.999Z,28.3
2017-02-16T12:41:03.218Z,28.43
2017-02-16T12:42:15.942Z,28.64
2017-02-16T12:43:28.521Z,28.82
2017-02-16T12:46:22.364Z,29.17
2017-02-16T12:47:35.328Z,29.1
2017-02-16T12:48:48.621Z,29.32
2017-02-16T12:50:01.922Z,29.36
2017-02-16T12:51:15.212Z,29.39
2017-02-16T12:52:28.511Z,29.52
2017-02-16T12:53:41.803Z,29.67
2017-02-16T12:54:55.087Z,29.88
2017-02-16T12:56:08.009Z,30.15
2017-02-16T12:57:35.265Z,30.29
2017-02-16T13:00:15.824Z,30.64
2017-02-16T13:01:28.561Z,30.53
2017-02-16T13:02:41.866Z,30.51
2017-02-16T13:03:55.161Z,30.45
2017-02-16T13:05:07.869Z,30.53
2017-02-16T13:06:21.157Z,30.64
2017-02-16T13:07:33.866Z,30.79
2017-02-16T13:08:47.149Z,30.6
2017-02-16T13:10:00.454Z,30.63
2017-02-16T13:11:27.740Z,30.83
2017-02-16T13:12:41.036Z,30.96
2017-02-16T13:13:54.333Z,30.96
2017-02-16T13:15:07.654Z,31.03
2017-02-16T13:16:20.374Z,31
2017-02-16T13:17:47.272Z,31.13
2017-02-16T13:19:00.563Z,31.1
2017-02-16T13:20:13.848Z,31.13
2017-02-16T13:21:40.735Z,31.16
2017-02-16T13:22:54.067Z,31.37
2017-02-16T13:24:07.365Z,31.4
2017-02-16T13:25:19.509Z,31.64
2017-02-16T13:26:32.843Z,31.62
2017-02-16T13:28:00.625Z,31.71
2017-02-16T13:29:13.351Z,31.79
2017-02-16T13:30:27.363Z,31.91
2017-02-16T13:31:40.520Z,32.16
2017-02-16T13:32:53.663Z,32.34
2017-02-16T13:34:06.841Z,32.31
2017-02-16T13:35:19.445Z,32.41
2017-02-16T13:36:32.605Z,32.46
2017-02-16T13:37:45.198Z,32.49
2017-02-16T13:38:58.353Z,32.41
2017-02-16T13:40:11.502Z,32.49
2017-02-16T13:41:24.646Z,32.31
2017-02-16T13:42:37.799Z,32.44
2017-02-16T13:43:50.959Z,32.73
2017-02-16T13:45:04.115Z,32.77
2017-02-16T13:46:17.255Z,32.96
2017-02-16T13:47:30.395Z,33.11
2017-02-16T13:48:43.548Z,32.99
2017-02-16T13:51:23.867Z,33.38
2017-02-16T13:52:37.025Z,33.4
2017-02-16T13:53:50.168Z,33.21
2017-02-16T13:55:02.760Z,32.91
2017-02-16T13:56:29.927Z,32.88
2017-02-16T13:57:43.081Z,32.93
2017-02-16T14:00:23.380Z,32.98
2017-02-16T14:01:36.539Z,32.8
2017-02-16T14:02:49.698Z,32.66
2017-02-16T14:04:02.854Z,32.56
2017-02-16T14:05:15.652Z,32.66
2017-02-16T14:06:28.838Z,32.73
2017-02-16T14:07:41.974Z,33.05
2017-02-16T14:08:55.134Z,33.12
2017-02-16T14:10:08.497Z,33.11
2017-02-16T14:11:21.663Z,33.11
2017-02-16T14:12:34.263Z,33.14
2017-02-16T14:13:47.426Z,33.09
2017-02-16T14:15:00.573Z,33.11
2017-02-16T14:16:13.757Z,33.31
2017-02-16T14:17:26.951Z,33.68
2017-02-16T14:18:40.117Z,33.89
2017-02-16T14:19:53.266Z,33.97
2017-02-16T14:21:06.417Z,34.03
2017-02-16T14:22:19.576Z,33.9
2017-02-16T14:23:32.746Z,33.82
2017-02-16T14:24:44.817Z,33.63
2017-02-16T14:25:58.176Z,33.66
2017-02-16T14:27:11.327Z,33.9
2017-02-16T14:28:24.479Z,34.05
2017-02-16T14:29:37.628Z,34.24
2017-02-16T14:31:04.777Z,34.26
2017-02-16T14:32:16.823Z,34
2017-02-16T14:33:28.311Z,33.53
2017-02-16T14:34:40.925Z,33.45
2017-02-16T14:35:54.094Z,33.72
2017-02-16T14:37:07.462Z,33.86
2017-02-16T14:38:34.633Z,33.97
2017-02-16T14:39:47.797Z,34.21
2017-02-16T14:41:00.957Z,34.28
2017-02-16T14:42:13.539Z,34.16
2017-02-16T14:43:40.696Z,33.89
2017-02-16T14:44:53.841Z,33.62
2017-02-16T14:46:06.993Z,33.71
2017-02-16T14:47:19.579Z,33.7
2017-02-16T14:48:32.765Z,33.37
2017-02-16T14:49:44.837Z,33.28
2017-02-16T14:50:57.988Z,33
2017-02-16T14:52:11.140Z,32.93
2017-02-16T14:53:24.494Z,32.76
2017-02-16T14:54:38.071Z,32.43
2017-02-16T14:55:51.225Z,32.13
2017-02-16T14:57:03.822Z,32.05
2017-02-16T14:58:16.620Z,31.97
2017-02-16T14:59:29.764Z,32.09
2017-02-16T15:00:42.909Z,32.02
2017-02-16T15:01:56.058Z,31.98
2017-02-16T15:03:09.224Z,32.03
2017-02-16T15:04:22.582Z,32.12
2017-02-16T15:05:35.739Z,32.28
2017-02-16T15:06:48.888Z,32.36
2017-02-16T15:08:02.034Z,32.59
2017-02-16T15:09:15.398Z,32.8
2017-02-16T15:10:28.535Z,33.03
2017-02-16T15:11:41.118Z,33.2
2017-02-16T15:12:54.283Z,33.37
2017-02-16T15:14:06.328Z,33.49
2017-02-16T15:15:18.928Z,33.63
2017-02-16T15:16:32.075Z,33.68
2017-02-16T15:19:12.397Z,33.71
2017-02-16T15:20:25.594Z,33.78
2017-02-16T15:21:38.747Z,34.03
2017-02-16T15:22:51.896Z,34.09
2017-02-16T15:24:05.062Z,33.84
2017-02-16T15:25:17.096Z,33.56
2017-02-16T15:26:29.131Z,33.53
2017-02-16T15:27:42.289Z,33.47
2017-02-16T15:28:55.441Z,33.41
2017-02-16T15:30:08.039Z,33.35
2017-02-16T15:31:20.117Z,33.33
2017-02-16T15:32:32.707Z,33.07
2017-02-16T15:33:45.860Z,32.84
2017-02-16T15:34:59.026Z,32.78
2017-02-16T15:36:12.191Z,32.8
2017-02-16T15:37:25.369Z,32.72
2017-02-16T15:38:38.556Z,32.84
2017-02-16T15:39:51.733Z,32.85
2017-02-16T15:41:04.916Z,33.02
2017-02-16T15:42:17.554Z,32.98
2017-02-16T15:43:30.729Z,32.85
2017-02-16T15:44:57.894Z,32.56
2017-02-16T15:46:11.055Z,32.53
2017-02-16T15:47:24.234Z,32.54
2017-02-16T15:48:37.395Z,32.56
2017-02-16T15:49:50.569Z,32.72
2017-02-16T15:51:03.722Z,32.83
2017-02-16T15:52:17.073Z,32.9
2017-02-16T15:53:30.228Z,32.88
2017-02-16T15:54:43.376Z,32.9
2017-02-16T15:55:56.568Z,32.85
2017-02-16T15:57:09.754Z,32.8
2017-02-16T15:58:22.912Z,32.77
2017-02-16T15:59:36.072Z,32.46
2017-02-16T16:01:04.119Z,32.4
2017-02-16T16:02:30.725Z,32.44
2017-02-16T16:03:43.907Z,32.4
2017-02-16T16:04:56.543Z,32.59
2017-02-16T16:06:08.595Z,32.5
2017-02-16T16:07:21.286Z,32.53
2017-02-16T16:08:34.737Z,32.53
2017-02-16T16:09:47.898Z,32.5
2017-02-16T16:11:00.529Z,32.54
2017-02-16T16:12:13.182Z,32.58
2017-02-16T16:13:40.446Z,32.56
2017-02-16T16:14:53.144Z,32.63